FOO2218 LEZL-LEBL
Flight info
| Callsign | FOO2218 |
|---|---|
| Flight time | 1h 12m |
| Altitude | 32000 |
| Route | HIJ M30 PARKA N858 TLD L184 RBO N870 PONEN/N0460F300 T600 CASPE |
| Aircraft | A320/M-SDE3FGHIRWY/LB1 |
Departure
| Time | 2026-04-28 17:00 |
|---|---|
| Airport | Seville Airport (LEZL) |
Arrival
| Time | 2026-04-28 18:13 |
|---|---|
| Airport | Josep Tarradellas Barcelona-El Prat Airport (LEBL) |
| Time | Latitude | Longitude | Altitude | Speed | Heading |
|---|---|---|---|---|---|
| 2026-04-28 16:45 | 37.42472 | -5.89699 | 97 ft | 0 kts | 41° |
| 2026-04-28 16:51 | 37.42468 | -5.89703 | 97 ft | 4 kts | 45° |
| 2026-04-28 16:51 | 37.42452 | -5.89724 | 95 ft | 4 kts | 25° |
| 2026-04-28 16:51 | 37.42442 | -5.89730 | 95 ft | 4 kts | 328° |
| 2026-04-28 16:52 | 37.42424 | -5.89723 | 95 ft | 4 kts | 343° |
| 2026-04-28 16:52 | 37.42415 | -5.89709 | 96 ft | 4 kts | 296° |
| 2026-04-28 16:52 | 37.42398 | -5.89685 | 97 ft | 4 kts | 315° |
| 2026-04-28 16:52 | 37.42380 | -5.89661 | 96 ft | 4 kts | 325° |
| 2026-04-28 16:53 | 37.42357 | -5.89652 | 97 ft | 4 kts | 2° |
| 2026-04-28 16:53 | 37.42341 | -5.89652 | 96 ft | 0 kts | 0° |
| 2026-04-28 16:55 | 37.42363 | -5.89607 | 96 ft | 10 kts | 94° |
| 2026-04-28 16:55 | 37.42260 | -5.89507 | 95 ft | 26 kts | 146° |
| 2026-04-28 16:56 | 37.42171 | -5.89433 | 96 ft | 7 kts | 186° |
| 2026-04-28 16:56 | 37.42111 | -5.89482 | 96 ft | 15 kts | 196° |
| 2026-04-28 16:56 | 37.42025 | -5.89417 | 95 ft | 16 kts | 132° |
| 2026-04-28 16:56 | 37.41984 | -5.89282 | 98 ft | 20 kts | 95° |
| 2026-04-28 16:57 | 37.41986 | -5.89069 | 98 ft | 30 kts | 89° |
| 2026-04-28 16:57 | 37.41986 | -5.88771 | 106 ft | 37 kts | 89° |
| 2026-04-28 16:57 | 37.41992 | -5.88442 | 108 ft | 39 kts | 89° |
| 2026-04-28 16:57 | 37.41983 | -5.88091 | 108 ft | 41 kts | 91° |
| 2026-04-28 16:58 | 37.41990 | -5.87728 | 106 ft | 42 kts | 90° |
| 2026-04-28 16:58 | 37.41942 | -5.87421 | 107 ft | 14 kts | 152° |
| 2026-04-28 16:58 | 37.41897 | -5.87432 | 107 ft | 0 kts | 189° |
| 2026-04-28 16:59 | 37.41844 | -5.87458 | 108 ft | 15 kts | 219° |
| 2026-04-28 17:00 | 37.41801 | -5.87623 | 107 ft | 26 kts | 268° |
| 2026-04-28 17:00 | 37.41801 | -5.88054 | 108 ft | 91 kts | 269° |
| 2026-04-28 17:00 | 37.41791 | -5.89291 | 105 ft | 186 kts | 269° |
| 2026-04-28 17:00 | 37.41804 | -5.91029 | 773 ft | 206 kts | 268° |
| 2026-04-28 17:01 | 37.41952 | -5.92901 | 1317 ft | 235 kts | 289° |
| 2026-04-28 17:01 | 37.42920 | -5.94683 | 2161 ft | 258 kts | 313° |
| 2026-04-28 17:01 | 37.44285 | -5.96217 | 3335 ft | 267 kts | 319° |
| 2026-04-28 17:01 | 37.45764 | -5.97687 | 4547 ft | 274 kts | 320° |
| 2026-04-28 17:02 | 37.47274 | -5.99193 | 5763 ft | 279 kts | 320° |
| 2026-04-28 17:02 | 37.48271 | -6.00223 | 6559 ft | 282 kts | 319° |
| 2026-04-28 17:02 | 37.50276 | -6.02401 | 8065 ft | 288 kts | 317° |
| 2026-04-28 17:02 | 37.51772 | -6.04100 | 9232 ft | 291 kts | 316° |
| 2026-04-28 17:03 | 37.54905 | -6.07721 | 10674 ft | 329 kts | 320° |
| 2026-04-28 17:03 | 37.56947 | -6.09197 | 11283 ft | 349 kts | 338° |
| 2026-04-28 17:03 | 37.59370 | -6.09769 | 12146 ft | 361 kts | 358° |
| 2026-04-28 17:04 | 37.64108 | -6.07716 | 14016 ft | 373 kts | 39° |
| 2026-04-28 17:04 | 37.66080 | -6.05574 | 14922 ft | 376 kts | 41° |
| 2026-04-28 17:05 | 37.70041 | -6.01149 | 16617 ft | 385 kts | 41° |
| 2026-04-28 17:05 | 37.72054 | -5.98888 | 17451 ft | 389 kts | 41° |
| 2026-04-28 17:05 | 37.74094 | -5.96606 | 18254 ft | 394 kts | 41° |
| 2026-04-28 17:06 | 37.78255 | -5.91966 | 19667 ft | 404 kts | 41° |
| 2026-04-28 17:06 | 37.80373 | -5.89602 | 20380 ft | 409 kts | 41° |
| 2026-04-28 17:06 | 37.84692 | -5.84787 | 21780 ft | 419 kts | 41° |
| 2026-04-28 17:07 | 37.86882 | -5.82336 | 22475 ft | 423 kts | 41° |
| 2026-04-28 17:07 | 37.89104 | -5.79849 | 23139 ft | 428 kts | 41° |
| 2026-04-28 17:07 | 37.91347 | -5.77338 | 23735 ft | 433 kts | 42° |
| 2026-04-28 17:07 | 37.93610 | -5.74802 | 24283 ft | 436 kts | 42° |
| 2026-04-28 17:08 | 37.95893 | -5.72241 | 24819 ft | 440 kts | 42° |
| 2026-04-28 17:08 | 37.98158 | -5.69697 | 25324 ft | 443 kts | 42° |
| 2026-04-28 17:08 | 38.00505 | -5.67062 | 25856 ft | 446 kts | 42° |
| 2026-04-28 17:08 | 38.02832 | -5.64449 | 26372 ft | 449 kts | 42° |
| 2026-04-28 17:09 | 38.05144 | -5.61846 | 26863 ft | 452 kts | 42° |
| 2026-04-28 17:09 | 38.07504 | -5.59185 | 27341 ft | 455 kts | 41° |
| 2026-04-28 17:09 | 38.09880 | -5.56505 | 27801 ft | 459 kts | 42° |
| 2026-04-28 17:09 | 38.12279 | -5.53796 | 28264 ft | 462 kts | 42° |
| 2026-04-28 17:10 | 38.14687 | -5.51076 | 28701 ft | 466 kts | 42° |
| 2026-04-28 17:10 | 38.17120 | -5.48332 | 29138 ft | 469 kts | 42° |
| 2026-04-28 17:10 | 38.19565 | -5.45572 | 29568 ft | 471 kts | 42° |
| 2026-04-28 17:10 | 38.22019 | -5.42798 | 29977 ft | 474 kts | 42° |
| 2026-04-28 17:11 | 38.24489 | -5.40000 | 30298 ft | 477 kts | 42° |
| 2026-04-28 17:11 | 38.26971 | -5.37183 | 30624 ft | 479 kts | 42° |
| 2026-04-28 17:11 | 38.29459 | -5.34354 | 30940 ft | 481 kts | 42° |
| 2026-04-28 17:11 | 38.31960 | -5.31507 | 31246 ft | 482 kts | 42° |
| 2026-04-28 17:12 | 38.34454 | -5.28666 | 31617 ft | 481 kts | 42° |
| 2026-04-28 17:12 | 38.36941 | -5.25827 | 31845 ft | 480 kts | 42° |
| 2026-04-28 17:12 | 38.41825 | -5.20251 | 31898 ft | 465 kts | 42° |
| 2026-04-28 17:13 | 38.46737 | -5.14913 | 31895 ft | 463 kts | 33° |
| 2026-04-28 17:13 | 38.52547 | -5.11518 | 31895 ft | 461 kts | 13° |
| 2026-04-28 17:14 | 38.58881 | -5.10784 | 31896 ft | 458 kts | 353° |
| 2026-04-28 17:14 | 38.65248 | -5.11439 | 31895 ft | 459 kts | 353° |
| 2026-04-28 17:15 | 38.71609 | -5.12082 | 31891 ft | 459 kts | 353° |
| 2026-04-28 17:15 | 38.77974 | -5.12728 | 31890 ft | 458 kts | 353° |
| 2026-04-28 17:16 | 38.84333 | -5.13375 | 31891 ft | 458 kts | 353° |
| 2026-04-28 17:16 | 38.90646 | -5.14024 | 31885 ft | 458 kts | 353° |
| 2026-04-28 17:17 | 38.97058 | -5.14248 | 31876 ft | 461 kts | 5° |
| 2026-04-28 17:17 | 39.03195 | -5.12082 | 31880 ft | 464 kts | 24° |
| 2026-04-28 17:18 | 39.08733 | -5.07785 | 31877 ft | 466 kts | 32° |
| 2026-04-28 17:18 | 39.14192 | -5.03263 | 31870 ft | 466 kts | 32° |
| 2026-04-28 17:19 | 39.19649 | -4.98744 | 31871 ft | 467 kts | 32° |
| 2026-04-28 17:19 | 39.25117 | -4.94212 | 31867 ft | 467 kts | 32° |
| 2026-04-28 17:20 | 39.29650 | -4.90439 | 31877 ft | 466 kts | 32° |
| 2026-04-28 17:20 | 39.36019 | -4.85130 | 31877 ft | 466 kts | 32° |
| 2026-04-28 17:21 | 39.41460 | -4.80589 | 31872 ft | 466 kts | 32° |
| 2026-04-28 17:22 | 39.49617 | -4.73763 | 31868 ft | 466 kts | 32° |
| 2026-04-28 17:22 | 39.55064 | -4.69180 | 31855 ft | 467 kts | 32° |
| 2026-04-28 17:23 | 39.60043 | -4.63839 | 31853 ft | 467 kts | 54° |
| 2026-04-28 17:23 | 39.61780 | -4.60295 | 31849 ft | 466 kts | 60° |
| 2026-04-28 17:23 | 39.65093 | -4.53052 | 31853 ft | 467 kts | 60° |
| 2026-04-28 17:24 | 39.68398 | -4.45792 | 31848 ft | 468 kts | 60° |
| 2026-04-28 17:24 | 39.71698 | -4.38515 | 31862 ft | 468 kts | 60° |
| 2026-04-28 17:25 | 39.76627 | -4.27608 | 31854 ft | 469 kts | 60° |
| 2026-04-28 17:26 | 39.79939 | -4.20292 | 31852 ft | 470 kts | 60° |
| 2026-04-28 17:26 | 39.83251 | -4.12950 | 31855 ft | 470 kts | 60° |
| 2026-04-28 17:27 | 39.86558 | -4.05602 | 31860 ft | 471 kts | 60° |
| 2026-04-28 17:27 | 39.89864 | -3.98236 | 31864 ft | 471 kts | 60° |
| 2026-04-28 17:28 | 39.93162 | -3.90865 | 31862 ft | 471 kts | 60° |
| 2026-04-28 17:28 | 39.98104 | -3.79783 | 31872 ft | 472 kts | 60° |
| 2026-04-28 17:29 | 40.01401 | -3.72365 | 31861 ft | 473 kts | 60° |
| 2026-04-28 17:30 | 40.06350 | -3.61223 | 31867 ft | 474 kts | 60° |
| 2026-04-28 17:30 | 40.11293 | -3.50036 | 31869 ft | 474 kts | 60° |
| 2026-04-28 17:31 | 40.15674 | -3.40087 | 31869 ft | 474 kts | 60° |
| 2026-04-28 17:32 | 40.20589 | -3.28867 | 31877 ft | 474 kts | 60° |
| 2026-04-28 17:32 | 40.23869 | -3.21373 | 31884 ft | 474 kts | 60° |
| 2026-04-28 17:33 | 40.27145 | -3.13876 | 31881 ft | 474 kts | 60° |
| 2026-04-28 17:33 | 40.29861 | -3.07645 | 31886 ft | 474 kts | 60° |
| 2026-04-28 17:34 | 40.33675 | -2.98861 | 31897 ft | 474 kts | 60° |
| 2026-04-28 17:34 | 40.36927 | -2.91352 | 31887 ft | 474 kts | 60° |
| 2026-04-28 17:35 | 40.40175 | -2.83833 | 31892 ft | 473 kts | 60° |
| 2026-04-28 17:35 | 40.43394 | -2.76368 | 31896 ft | 473 kts | 60° |
| 2026-04-28 17:36 | 40.46632 | -2.68844 | 31899 ft | 473 kts | 60° |
| 2026-04-28 17:36 | 40.49863 | -2.61307 | 31890 ft | 474 kts | 60° |
| 2026-04-28 17:37 | 40.53093 | -2.53755 | 31891 ft | 474 kts | 60° |
| 2026-04-28 17:37 | 40.56315 | -2.46208 | 31887 ft | 474 kts | 61° |
| 2026-04-28 17:38 | 40.59533 | -2.38648 | 31897 ft | 473 kts | 61° |
| 2026-04-28 17:38 | 40.62748 | -2.31090 | 31893 ft | 474 kts | 61° |
| 2026-04-28 17:39 | 40.65959 | -2.23516 | 31899 ft | 473 kts | 61° |
| 2026-04-28 17:40 | 40.70754 | -2.12163 | 31914 ft | 473 kts | 61° |
| 2026-04-28 17:40 | 40.73943 | -2.04590 | 31906 ft | 472 kts | 61° |
| 2026-04-28 17:41 | 40.77126 | -1.97011 | 31914 ft | 472 kts | 61° |
| 2026-04-28 17:41 | 40.80299 | -1.89425 | 31912 ft | 472 kts | 61° |
| 2026-04-28 17:42 | 40.83444 | -1.81893 | 31919 ft | 471 kts | 61° |
| 2026-04-28 17:42 | 40.86601 | -1.74332 | 31920 ft | 470 kts | 61° |
| 2026-04-28 17:43 | 40.89757 | -1.66744 | 31930 ft | 470 kts | 61° |
| 2026-04-28 17:43 | 40.92896 | -1.59161 | 31910 ft | 471 kts | 61° |
| 2026-04-28 17:44 | 40.96044 | -1.51546 | 31901 ft | 472 kts | 61° |
| 2026-04-28 17:44 | 40.99193 | -1.43928 | 31904 ft | 472 kts | 62° |
| 2026-04-28 17:45 | 41.02335 | -1.36297 | 31898 ft | 472 kts | 62° |
| 2026-04-28 17:45 | 41.05476 | -1.28660 | 31904 ft | 472 kts | 62° |
| 2026-04-28 17:46 | 41.08600 | -1.21020 | 31898 ft | 472 kts | 62° |
| 2026-04-28 17:46 | 41.11720 | -1.13372 | 31891 ft | 471 kts | 62° |
| 2026-04-28 17:47 | 41.14837 | -1.05729 | 31896 ft | 471 kts | 62° |
| 2026-04-28 17:47 | 41.17959 | -0.98069 | 31881 ft | 472 kts | 62° |
| 2026-04-28 17:48 | 41.21066 | -0.90388 | 31872 ft | 472 kts | 62° |
| 2026-04-28 17:48 | 41.24214 | -0.82614 | 31890 ft | 490 kts | 62° |
| 2026-04-28 17:49 | 41.27463 | -0.74573 | 31881 ft | 495 kts | 62° |
| 2026-04-28 17:49 | 41.30699 | -0.66497 | 31889 ft | 495 kts | 62° |
| 2026-04-28 17:50 | 41.33613 | -0.58229 | 31879 ft | 494 kts | 73° |
| 2026-04-28 17:50 | 41.34598 | -0.49246 | 31889 ft | 491 kts | 93° |
| 2026-04-28 17:51 | 41.33763 | -0.40273 | 31893 ft | 488 kts | 101° |
| 2026-04-28 17:51 | 41.32756 | -0.31342 | 31888 ft | 488 kts | 101° |
| 2026-04-28 17:52 | 41.31744 | -0.22418 | 31897 ft | 488 kts | 101° |
| 2026-04-28 17:52 | 41.30222 | -0.09037 | 31890 ft | 488 kts | 101° |
| 2026-04-28 17:53 | 41.29190 | -0.00122 | 31899 ft | 488 kts | 101° |
| 2026-04-28 17:53 | 41.28151 | 0.08786 | 31604 ft | 487 kts | 101° |
| 2026-04-28 17:54 | 41.27630 | 0.13237 | 30371 ft | 488 kts | 101° |
| 2026-04-28 17:54 | 41.27295 | 0.17723 | 29264 ft | 487 kts | 92° |
| 2026-04-28 17:54 | 41.27544 | 0.22127 | 28927 ft | 470 kts | 82° |
| 2026-04-28 17:54 | 41.28259 | 0.26312 | 28362 ft | 460 kts | 75° |
| 2026-04-28 17:55 | 41.29127 | 0.30377 | 27684 ft | 453 kts | 75° |
| 2026-04-28 17:55 | 41.29997 | 0.34379 | 26995 ft | 448 kts | 75° |
| 2026-04-28 17:55 | 41.30865 | 0.38328 | 26310 ft | 443 kts | 75° |
| 2026-04-28 17:55 | 41.31726 | 0.42233 | 25898 ft | 437 kts | 74° |
| 2026-04-28 17:56 | 41.32577 | 0.46099 | 25562 ft | 435 kts | 75° |
| 2026-04-28 17:56 | 41.33421 | 0.49950 | 25208 ft | 432 kts | 75° |
| 2026-04-28 17:56 | 41.34253 | 0.53781 | 24859 ft | 429 kts | 75° |
| 2026-04-28 17:56 | 41.35077 | 0.57590 | 24513 ft | 428 kts | 75° |
| 2026-04-28 17:57 | 41.35896 | 0.61382 | 24163 ft | 426 kts | 75° |
| 2026-04-28 17:57 | 41.36710 | 0.65162 | 23820 ft | 424 kts | 75° |
| 2026-04-28 17:57 | 41.37519 | 0.68922 | 23466 ft | 421 kts | 75° |
| 2026-04-28 17:57 | 41.38322 | 0.72665 | 23102 ft | 420 kts | 75° |
| 2026-04-28 17:58 | 41.39120 | 0.76390 | 22759 ft | 416 kts | 75° |
| 2026-04-28 17:58 | 41.39908 | 0.80070 | 22434 ft | 413 kts | 75° |
| 2026-04-28 17:58 | 41.40698 | 0.83763 | 22098 ft | 412 kts | 75° |
| 2026-04-28 17:58 | 41.41481 | 0.87429 | 21764 ft | 410 kts | 75° |
| 2026-04-28 17:59 | 41.42258 | 0.91071 | 21435 ft | 408 kts | 75° |
| 2026-04-28 17:59 | 41.43032 | 0.94699 | 21116 ft | 407 kts | 75° |
| 2026-04-28 17:59 | 41.43801 | 0.98322 | 20782 ft | 405 kts | 75° |
| 2026-04-28 17:59 | 41.44562 | 1.01928 | 20454 ft | 404 kts | 75° |
| 2026-04-28 18:00 | 41.45320 | 1.05515 | 20124 ft | 402 kts | 75° |
| 2026-04-28 18:00 | 41.46080 | 1.09097 | 19782 ft | 401 kts | 75° |
| 2026-04-28 18:00 | 41.46837 | 1.12656 | 19349 ft | 398 kts | 75° |
| 2026-04-28 18:00 | 41.47578 | 1.16154 | 18937 ft | 396 kts | 75° |
| 2026-04-28 18:01 | 41.48332 | 1.19728 | 18533 ft | 395 kts | 75° |
| 2026-04-28 18:01 | 41.49061 | 1.23200 | 18126 ft | 393 kts | 75° |
| 2026-04-28 18:01 | 41.49556 | 1.25561 | 17830 ft | 391 kts | 75° |
| 2026-04-28 18:02 | 41.51102 | 1.32969 | 16978 ft | 385 kts | 75° |
| 2026-04-28 18:02 | 41.51808 | 1.36350 | 16583 ft | 382 kts | 75° |
| 2026-04-28 18:02 | 41.52527 | 1.39794 | 16192 ft | 379 kts | 75° |
| 2026-04-28 18:02 | 41.53229 | 1.43163 | 15795 ft | 376 kts | 75° |
| 2026-04-28 18:03 | 41.53917 | 1.46469 | 15421 ft | 374 kts | 75° |
| 2026-04-28 18:03 | 41.54532 | 1.49823 | 15034 ft | 370 kts | 82° |
| 2026-04-28 18:03 | 41.54730 | 1.53239 | 14424 ft | 370 kts | 91° |
| 2026-04-28 18:03 | 41.54755 | 1.56642 | 14102 ft | 363 kts | 91° |
| 2026-04-28 18:04 | 41.54773 | 1.60000 | 13978 ft | 360 kts | 91° |
| 2026-04-28 18:04 | 41.54787 | 1.63341 | 13996 ft | 360 kts | 91° |
| 2026-04-28 18:04 | 41.54805 | 1.66683 | 13999 ft | 360 kts | 91° |
| 2026-04-28 18:04 | 41.54825 | 1.70021 | 14005 ft | 360 kts | 91° |
| 2026-04-28 18:05 | 41.54847 | 1.73356 | 14003 ft | 360 kts | 91° |
| 2026-04-28 18:05 | 41.54869 | 1.76620 | 14004 ft | 342 kts | 91° |
| 2026-04-28 18:05 | 41.54888 | 1.79721 | 14008 ft | 328 kts | 91° |
| 2026-04-28 18:05 | 41.54903 | 1.82746 | 13998 ft | 325 kts | 91° |
| 2026-04-28 18:06 | 41.54918 | 1.85750 | 13480 ft | 322 kts | 92° |
| 2026-04-28 18:06 | 41.54916 | 1.88733 | 12638 ft | 318 kts | 96° |
| 2026-04-28 18:06 | 41.54600 | 1.91610 | 11895 ft | 310 kts | 102° |
| 2026-04-28 18:06 | 41.54221 | 1.94418 | 11159 ft | 305 kts | 103° |
| 2026-04-28 18:07 | 41.53851 | 1.97175 | 10445 ft | 299 kts | 102° |
| 2026-04-28 18:07 | 41.53487 | 1.99878 | 9714 ft | 293 kts | 102° |
| 2026-04-28 18:07 | 41.53130 | 2.02526 | 8890 ft | 288 kts | 103° |
| 2026-04-28 18:07 | 41.52778 | 2.05135 | 8081 ft | 284 kts | 103° |
| 2026-04-28 18:08 | 41.52380 | 2.07693 | 7251 ft | 278 kts | 110° |
| 2026-04-28 18:08 | 41.51510 | 2.09926 | 6667 ft | 265 kts | 129° |
| 2026-04-28 18:08 | 41.50400 | 2.11915 | 6549 ft | 269 kts | 128° |
| 2026-04-28 18:08 | 41.49302 | 2.13939 | 6430 ft | 269 kts | 127° |
| 2026-04-28 18:09 | 41.48210 | 2.15967 | 6306 ft | 271 kts | 127° |
| 2026-04-28 18:09 | 41.47110 | 2.18001 | 6180 ft | 269 kts | 128° |
| 2026-04-28 18:09 | 41.46021 | 2.20005 | 6051 ft | 267 kts | 128° |
| 2026-04-28 18:09 | 41.44835 | 2.21901 | 5571 ft | 266 kts | 141° |
| 2026-04-28 18:10 | 41.43215 | 2.23045 | 5119 ft | 262 kts | 165° |
| 2026-04-28 18:10 | 41.41459 | 2.23232 | 4827 ft | 252 kts | 185° |
| 2026-04-28 18:10 | 41.39720 | 2.22748 | 4144 ft | 259 kts | 191° |
| 2026-04-28 18:10 | 41.37978 | 2.22192 | 3460 ft | 263 kts | 192° |
| 2026-04-28 18:11 | 41.36182 | 2.21566 | 2757 ft | 269 kts | 197° |
| 2026-04-28 18:11 | 41.34526 | 2.20309 | 2170 ft | 273 kts | 219° |
| 2026-04-28 18:11 | 41.33351 | 2.18428 | 2013 ft | 258 kts | 238° |
| 2026-04-28 18:11 | 41.32620 | 2.16356 | 2020 ft | 236 kts | 244° |
| 2026-04-28 18:12 | 41.31907 | 2.14301 | 1772 ft | 254 kts | 243° |
| 2026-04-28 18:12 | 41.31234 | 2.12316 | 971 ft | 218 kts | 247° |
| 2026-04-28 18:12 | 41.30653 | 2.10614 | 300 ft | 189 kts | 244° |
| 2026-04-28 18:12 | 41.30153 | 2.09147 | 48 ft | 156 kts | 244° |
| 2026-04-28 18:13 | 41.29799 | 2.08121 | 18 ft | 61 kts | 244° |
| 2026-04-28 18:13 | 41.29701 | 2.07924 | 17 ft | 21 kts | 207° |
| 2026-04-28 18:13 | 41.29588 | 2.07835 | 20 ft | 14 kts | 206° |
| 2026-04-28 18:13 | 41.29495 | 2.07809 | 18 ft | 15 kts | 162° |
| 2026-04-28 18:14 | 41.29390 | 2.07874 | 18 ft | 19 kts | 154° |
| 2026-04-28 18:14 | 41.29260 | 2.07946 | 18 ft | 20 kts | 160° |
| 2026-04-28 18:14 | 41.29151 | 2.07950 | 19 ft | 5 kts | 162° |